Tuesday, October 16, 2018, 10:33 AM GMT
Back to Local

CYZX, Greenwood, N. S.

Location: , , Canada Lat: 44.983
Local Time: 10:33 AM GMT (10:33 GMT) Lon: -64.917
Time Zone: GMT Elev: 91 ft

Show me the last for .
Show Coded

Time T Td Feel RH Dir Speed Gust Alt SLP Vis Weather Sky Remarks
2018-10-16 10:00 52 48 - 87 270° 25 33 29.51 29.52 15 -SHRA SCT015 OVC050 None
2018-10-16 09:47 54 50 - 87 280° 31 45 29.50 29.50 15 -SHRA SCT012 OVC035 None
2018-10-16 09:15 55 52 - 87 260° 21 30 29.48 29.48 15 SCT015 BKN050 None
2018-10-16 09:00 55 54 - 93 260° 24 39 29.47 29.48 6 RA BR BKN015 OVC045 None
2018-10-16 08:00 63 61 - 93 250° 23 35 29.44 29.44 5 RA BR FEW008 OVC017 None
2018-10-16 07:45 63 61 - 93 250° 23 29 29.43 29.43 6 RA BR FEW008 OVC020 None
2018-10-16 07:00 61 59 - 93 230° 12 17 29.46 29.46 10 -RA BKN015 OVC022 None
2018-10-16 06:46 59 59 - 100 240° 5 - 29.47 29.47 10 -RA BKN015 OVC025 None
2018-10-16 06:00 61 59 - 93 230° 10 - 29.50 29.50 10 -RA SCT020 OVC040 Pressure falling rapidly
2018-10-16 05:00 57 55 - 93 190° 16 23 29.56 29.57 12 -RA OVC045 Pressure falling rapidly
2018-10-16 04:00 55 54 - 93 180° 15 22 29.64 29.64 12 -RA FEW013 OVC050 Pressure falling rapidly
2018-10-16 03:24 54 52 - 93 180° 16 30 29.69 29.69 10 -RA SCT013 OVC040 Pressure falling rapidly
2018-10-16 03:00 54 52 - 93 190° 16 28 29.72 29.72 12 -RA BKN013 OVC040 Pressure falling rapidly
2018-10-16 02:00 54 50 - 87 170° 8 20 29.81 29.81 12 -RA BKN013 OVC025 Pressure falling rapidly
2018-10-16 01:44 54 50 - 87 - Calm - 29.84 29.84 12 -RA BKN014 OVC035 None
2018-10-16 01:00 54 50 - 87 170° 7 20 29.87 29.87 15 -RA FEW015 OVC050 Pressure falling rapidly
2018-10-16 00:00 54 50 - 87 190° 9 - 29.94 29.94 10 -RA SCT030 OVC060 None
2018-10-15 23:00 54 48 - 81 190° 12 - 29.99 30.00 10 -RA OVC060 None
2018-10-15 22:00 55 46 - 71 160° 2 - 30.01 30.01 12 -RA FEW066 BKN084 OVC250 None
2018-10-15 21:39 55 45 - 66 180° 9 - 30.03 30.03 12 -RA FEW066 BKN084 OVC250 None
2018-10-15 21:15 57 45 - 62 200° 9 - 30.05 30.05 15 FEW066 BKN084 OVC250 None
2018-10-15 21:00 57 45 - 62 200° 6 18 30.04 30.05 12 -RA FEW066 BKN084 OVC250 None
2018-10-15 20:56 57 45 - 62 290° 10 20 30.04 30.04 12 FEW066 BKN084 OVC250 None
2018-10-15 20:00 59 43 - 54 180° 8 - 30.05 30.05 12 FEW120 BKN210 BKN250 None
2018-10-15 19:00 57 43 - 58 200° 10 - 30.09 30.09 15 FEW050 BKN200 BKN250 None
2018-10-15 18:00 61 41 - 48 210° 13 20 30.12 30.12 15 FEW045 FEW180 BKN250 None
2018-10-15 17:00 59 39 - 47 230° 10 20 30.14 30.15 15 FEW024 FEW200 BKN250 None
2018-10-15 16:00 57 39 - 50 230° 12 - 30.18 30.18 15 FEW043 BKN250 None
2018-10-15 15:00 54 41 - 62 - Calm - 30.21 30.21 15 SCT250 None
2018-10-15 14:00 46 37 - 70 - Calm - 30.23 30.24 15 BKN250 None
2018-10-15 13:00 41 37 - 86 270° 2 - 30.24 30.24 15 SCT250 None
2018-10-15 12:00 36 34 - 93 - Calm - 30.24 30.24 15 FEW220 FEW250 None
2018-10-15 11:00 32 32 - 100 220° 2 - 30.24 30.24 15 FEW220 SCT250 None

Support USWX by starting your Amazon purchase here.